Terminal Aerodrome Forecast
Issued by NWS Blacksburg, VA

Home | Current Version | Previous Version | Text Only | Print | Product List | Glossary On
Versions: 1 2 3 4 5 6 7 8 9 10 11 12 13 14 15 16 17 18 19 20 21 22 23 24 25 26 27 28 29 30 31 32 33 34
000
FTUS41 KRNK 260540
TAFBLF
TAF
KBLF 260540Z 2606/2706 10003KT 1SM -RA BR SCT002 BKN029
     FM261200 33006KT P6SM -SHRA OVC004
     FM261400 32008KT P6SM OVC007
     FM261700 32008KT P6SM BKN012
     FM270100 30007KT 6SM BR SCT015
     FM270400 31006KT 4SM BR OVC003=

USA.gov is the U.S. government's official web portal to all federal, state and local government web resources and services.